createdAt,value
2018-09-01T00:00:18.945Z,1011.31
2018-09-01T00:01:18.915Z,1011.27
2018-09-01T00:02:18.903Z,1011.28
2018-09-01T00:03:18.887Z,1011.28
2018-09-01T00:04:18.880Z,1011.26
2018-09-01T00:05:18.906Z,1011.22
2018-09-01T00:06:18.887Z,1011.26
2018-09-01T00:07:18.887Z,1011.25
2018-09-01T00:08:18.831Z,1011.21
2018-09-01T00:09:18.821Z,1011.20
2018-09-01T00:10:18.800Z,1011.19
2018-09-01T00:11:18.908Z,1011.18
2018-09-01T00:12:18.768Z,1011.16
2018-09-01T00:13:18.768Z,1011.17
2018-09-01T00:14:18.759Z,1011.16
2018-09-01T00:15:18.732Z,1011.11
2018-09-01T00:16:18.719Z,1011.12
2018-09-01T00:17:18.727Z,1011.12
2018-09-01T00:18:18.703Z,1011.13
2018-09-01T00:19:18.690Z,1011.12
2018-09-01T00:20:18.682Z,1011.13
2018-09-01T00:21:18.654Z,1011.14
2018-09-01T00:22:18.662Z,1011.12
2018-09-01T00:23:18.642Z,1011.11
2018-09-01T00:24:18.626Z,1011.13
2018-09-01T00:25:18.609Z,1011.12
2018-09-01T00:26:18.603Z,1011.15
2018-09-01T00:27:18.592Z,1011.13
2018-09-01T00:28:18.572Z,1011.11
2018-09-01T00:29:18.555Z,1011.14
2018-09-01T00:30:18.549Z,1011.10
2018-09-01T00:31:18.530Z,1011.11
2018-09-01T00:32:18.553Z,1011.14
2018-09-01T00:33:18.501Z,1011.15
2018-09-01T00:34:18.495Z,1011.15
2018-09-01T00:35:18.487Z,1011.16
2018-09-01T00:36:18.463Z,1011.13
2018-09-01T00:37:18.479Z,1011.14
2018-09-01T00:38:18.440Z,1011.15
2018-09-01T00:39:18.434Z,1011.19
2018-09-01T00:40:18.428Z,1011.18
2018-09-01T00:41:18.404Z,1011.20
2018-09-01T00:42:18.423Z,1011.15
2018-09-01T00:43:18.418Z,1011.22
2018-09-01T00:44:18.383Z,1011.24
2018-09-01T00:45:18.360Z,1011.23
2018-09-01T00:46:18.334Z,1011.24
2018-09-01T00:47:18.332Z,1011.25
2018-09-01T00:48:18.339Z,1011.25
2018-09-01T00:49:18.303Z,1011.24
2018-09-01T00:50:18.282Z,1011.25
2018-09-01T00:51:18.273Z,1011.27
2018-09-01T00:52:18.271Z,1011.28
2018-09-01T00:53:18.266Z,1011.28
2018-09-01T00:54:18.243Z,1011.28
2018-09-01T00:55:18.216Z,1011.30
2018-09-01T00:56:18.213Z,1011.29
2018-09-01T00:57:18.199Z,1011.28
2018-09-01T00:58:18.218Z,1011.30
2018-09-01T00:59:18.464Z,1011.35
2018-09-01T01:00:18.159Z,1011.36
2018-09-01T01:01:18.153Z,1011.34
2018-09-01T01:02:18.139Z,1011.36
2018-09-01T01:03:18.140Z,1011.32
2018-09-01T01:04:18.102Z,1011.33
2018-09-01T01:05:18.081Z,1011.31
2018-09-01T01:06:18.100Z,1011.29
2018-09-01T01:07:18.064Z,1011.28
2018-09-01T01:08:18.049Z,1011.31
2018-09-01T01:09:18.074Z,1011.31
2018-09-01T01:10:18.238Z,1011.28
2018-09-01T01:11:18.035Z,1011.28
2018-09-01T01:12:17.997Z,1011.25
2018-09-01T01:13:17.976Z,1011.26
2018-09-01T01:14:17.961Z,1011.29
2018-09-01T01:15:17.947Z,1011.28
2018-09-01T01:16:17.977Z,1011.29
2018-09-01T01:17:17.933Z,1011.27
2018-09-01T01:18:17.913Z,1011.29
2018-09-01T01:19:17.897Z,1011.24
2018-09-01T01:20:17.890Z,1011.27
2018-09-01T01:21:18.235Z,1011.27
2018-09-01T01:22:17.861Z,1011.26
2018-09-01T01:23:17.844Z,1011.26
2018-09-01T01:24:17.835Z,1011.28
2018-09-01T01:25:17.825Z,1011.27
2018-09-01T01:26:17.805Z,1011.29
2018-09-01T01:27:17.805Z,1011.30
2018-09-01T01:28:17.781Z,1011.32
2018-09-01T01:29:17.774Z,1011.32
2018-09-01T01:30:17.756Z,1011.27
2018-09-01T01:31:17.745Z,1011.29
2018-09-01T01:32:17.780Z,1011.30
2018-09-01T01:33:17.706Z,1011.36
2018-09-01T01:34:17.700Z,1011.35
2018-09-01T01:35:17.693Z,1011.36
2018-09-01T01:36:17.680Z,1011.35
2018-09-01T01:37:17.657Z,1011.34
2018-09-01T01:38:17.686Z,1011.38
2018-09-01T01:39:17.636Z,1011.35
2018-09-01T01:40:17.623Z,1011.36
2018-09-01T01:41:17.609Z,1011.33
2018-09-01T01:42:17.583Z,1011.31
2018-09-01T01:43:17.607Z,1011.31
2018-09-01T01:44:17.626Z,1011.33
2018-09-01T01:45:17.548Z,1011.36
2018-09-01T01:46:17.538Z,1011.38
2018-09-01T01:47:17.513Z,1011.32
2018-09-01T01:48:17.513Z,1011.32
2018-09-01T01:49:17.496Z,1011.36
2018-09-01T01:50:17.482Z,1011.37
2018-09-01T01:51:17.458Z,1011.39
2018-09-01T01:52:17.446Z,1011.38
2018-09-01T01:53:17.441Z,1011.38
2018-09-01T01:54:17.454Z,1011.40
2018-09-01T01:55:17.406Z,1011.36
2018-09-01T01:56:17.425Z,1011.37
2018-09-01T01:57:17.383Z,1011.40
2018-09-01T01:58:17.373Z,1011.39
2018-09-01T01:59:17.430Z,1011.38
2018-09-01T02:00:17.348Z,1011.38
2018-09-01T02:01:17.336Z,1011.38
2018-09-01T02:02:17.319Z,1011.41
2018-09-01T02:03:17.304Z,1011.34
2018-09-01T02:04:17.289Z,1011.40
2018-09-01T02:05:17.279Z,1011.39
2018-09-01T02:06:17.263Z,1011.41
2018-09-01T02:07:17.253Z,1011.38
2018-09-01T02:08:17.239Z,1011.42
2018-09-01T02:09:17.219Z,1011.41
2018-09-01T02:10:17.243Z,1011.41
2018-09-01T02:11:17.197Z,1011.45
2018-09-01T02:12:17.178Z,1011.44
2018-09-01T02:13:17.164Z,1011.46
2018-09-01T02:14:17.177Z,1011.43
2018-09-01T02:15:17.145Z,1011.43
2018-09-01T02:16:17.185Z,1011.45
2018-09-01T02:17:17.111Z,1011.46
2018-09-01T02:18:17.094Z,1011.47
2018-09-01T02:19:17.082Z,1011.47
2018-09-01T02:20:17.065Z,1011.51
2018-09-01T02:21:17.044Z,1011.53
2018-09-01T02:22:17.036Z,1011.54
2018-09-01T02:23:17.024Z,1011.47
2018-09-01T02:24:17.012Z,1011.47
2018-09-01T02:25:16.998Z,1011.51
2018-09-01T02:26:16.982Z,1011.48
2018-09-01T02:27:17.006Z,1011.45
2018-09-01T02:28:16.945Z,1011.43
2018-09-01T02:29:16.976Z,1011.44
2018-09-01T02:30:16.927Z,1011.46
2018-09-01T02:31:16.917Z,1011.44
2018-09-01T02:32:16.938Z,1011.44
2018-09-01T02:33:16.917Z,1011.50
2018-09-01T02:34:16.876Z,1011.48
2018-09-01T02:35:16.849Z,1011.47
2018-09-01T02:36:16.842Z,1011.48
2018-09-01T02:37:16.823Z,1011.47
2018-09-01T02:38:16.808Z,1011.45
2018-09-01T02:39:16.805Z,1011.47
2018-09-01T02:40:16.783Z,1011.45
2018-09-01T02:41:16.774Z,1011.50
2018-09-01T02:42:16.748Z,1011.51
2018-09-01T02:43:16.739Z,1011.54
2018-09-01T02:44:16.752Z,1011.53
2018-09-01T02:45:16.712Z,1011.56
2018-09-01T02:46:16.693Z,1011.57
2018-09-01T02:47:16.684Z,1011.58
2018-09-01T02:48:16.689Z,1011.59
2018-09-01T02:49:16.660Z,1011.57
2018-09-01T02:50:16.714Z,1011.61
2018-09-01T02:51:16.624Z,1011.61
2018-09-01T02:52:16.617Z,1011.62
2018-09-01T02:53:16.604Z,1011.64
2018-09-01T02:54:16.587Z,1011.61
2018-09-01T02:55:16.573Z,1011.59
2018-09-01T02:56:16.583Z,1011.56
2018-09-01T02:57:16.532Z,1011.57
2018-09-01T02:58:16.517Z,1011.54
2018-09-01T02:59:16.571Z,1011.53
2018-09-01T03:00:16.502Z,1011.51
2018-09-01T03:01:16.834Z,1011.50
2018-09-01T03:02:16.475Z,1011.51
2018-09-01T03:03:16.459Z,1011.55
2018-09-01T03:04:16.451Z,1011.53
2018-09-01T03:05:16.426Z,1011.55
2018-09-01T03:06:16.414Z,1011.53
2018-09-01T03:07:16.406Z,1011.57
2018-09-01T03:08:16.410Z,1011.54
2018-09-01T03:09:16.376Z,1011.49
2018-09-01T03:10:16.350Z,1011.54
2018-09-01T03:11:16.344Z,1011.51
2018-09-01T03:12:16.329Z,1011.52
2018-09-01T03:13:16.334Z,1011.50
2018-09-01T03:14:16.301Z,1011.58
2018-09-01T03:15:16.281Z,1011.52
2018-09-01T03:16:16.268Z,1011.51
2018-09-01T03:17:16.253Z,1011.51
2018-09-01T03:18:16.233Z,1011.54
2018-09-01T03:19:16.228Z,1011.56
2018-09-01T03:20:16.215Z,1011.60
2018-09-01T03:21:16.196Z,1011.54
2018-09-01T03:22:16.215Z,1011.59
2018-09-01T03:23:16.198Z,1011.55
2018-09-01T03:24:16.160Z,1011.58
2018-09-01T03:25:16.148Z,1011.59
2018-09-01T03:26:16.121Z,1011.58
2018-09-01T03:27:16.119Z,1011.61
2018-09-01T03:28:16.133Z,1011.60
2018-09-01T03:29:16.087Z,1011.63
2018-09-01T03:30:16.077Z,1011.59
2018-09-01T03:31:16.054Z,1011.57
2018-09-01T03:32:16.040Z,1011.58
2018-09-01T03:33:16.072Z,1011.56
2018-09-01T03:34:16.004Z,1011.55
2018-09-01T03:35:15.999Z,1011.55
2018-09-01T03:36:15.984Z,1011.57
2018-09-01T03:37:15.971Z,1011.55
2018-09-01T03:38:15.947Z,1011.55
2018-09-01T03:39:15.947Z,1011.55
2018-09-01T03:40:15.969Z,1011.52
2018-09-01T03:41:15.919Z,1011.55
2018-09-01T03:42:15.893Z,1011.51
2018-09-01T03:43:15.945Z,1011.53
2018-09-01T03:44:15.864Z,1011.52
2018-09-01T03:45:15.858Z,1011.52
2018-09-01T03:46:15.850Z,1011.50
2018-09-01T03:47:15.833Z,1011.50
2018-09-01T03:48:15.808Z,1011.54
2018-09-01T03:49:15.816Z,1011.51
2018-09-01T03:50:15.790Z,1011.51
2018-09-01T03:51:15.785Z,1011.53
2018-09-01T03:52:15.762Z,1011.52
2018-09-01T03:53:15.740Z,1011.55
2018-09-01T03:54:15.741Z,1011.51
2018-09-01T03:55:15.721Z,1011.53
2018-09-01T03:56:15.708Z,1011.53
2018-09-01T03:57:15.691Z,1011.59
2018-09-01T03:58:15.727Z,1011.55
2018-09-01T03:59:15.666Z,1011.55
2018-09-01T04:00:15.651Z,1011.53
2018-09-01T04:01:15.644Z,1011.52
2018-09-01T04:02:15.623Z,1011.51
2018-09-01T04:03:15.624Z,1011.54
2018-09-01T04:04:15.619Z,1011.51
2018-09-01T04:05:15.583Z,1011.50
2018-09-01T04:06:15.564Z,1011.50
2018-09-01T04:07:15.555Z,1011.52
2018-09-01T04:08:15.535Z,1011.55
2018-09-01T04:09:15.531Z,1011.53
2018-09-01T04:10:15.515Z,1011.54
2018-09-01T04:11:15.493Z,1011.54
2018-09-01T04:12:15.521Z,1011.52
2018-09-01T04:13:15.476Z,1011.56
2018-09-01T04:14:15.456Z,1011.53
2018-09-01T04:15:15.446Z,1011.55
2018-09-01T04:16:15.500Z,1011.52
2018-09-01T04:17:15.420Z,1011.53
2018-09-01T04:18:15.408Z,1011.54
2018-09-01T04:19:15.387Z,1011.55
2018-09-01T04:20:15.373Z,1011.55
2018-09-01T04:21:15.363Z,1011.58
2018-09-01T04:22:15.383Z,1011.57
2018-09-01T04:23:15.335Z,1011.63
2018-09-01T04:24:15.311Z,1011.58
2018-09-01T04:25:15.296Z,1011.63
2018-09-01T04:26:15.289Z,1011.65
2018-09-01T04:27:15.297Z,1011.63
2018-09-01T04:28:15.272Z,1011.66
2018-09-01T04:29:15.244Z,1011.65
2018-09-01T04:30:15.237Z,1011.63
2018-09-01T04:31:15.243Z,1011.62
2018-09-01T04:32:15.203Z,1011.57
2018-09-01T04:33:15.212Z,1011.59
2018-09-01T04:34:15.174Z,1011.66
2018-09-01T04:35:15.158Z,1011.63
2018-09-01T04:36:15.148Z,1011.62
2018-09-01T04:37:15.192Z,1011.66
2018-09-01T04:38:15.126Z,1011.71
2018-09-01T04:39:15.113Z,1011.68
2018-09-01T04:40:15.090Z,1011.67
2018-09-01T04:41:15.080Z,1011.66
2018-09-01T04:42:15.050Z,1011.66
2018-09-01T04:43:15.076Z,1011.70
2018-09-01T04:44:15.037Z,1011.65
2018-09-01T04:45:15.020Z,1011.66
2018-09-01T04:46:15.011Z,1011.69
2018-09-01T04:47:14.980Z,1011.70
2018-09-01T04:48:15.050Z,1011.69
2018-09-01T04:49:14.958Z,1011.75
2018-09-01T04:50:14.949Z,1011.72
2018-09-01T04:51:14.936Z,1011.76
2018-09-01T04:52:14.916Z,1011.75
2018-09-01T04:53:14.900Z,1011.75
2018-09-01T04:54:14.892Z,1011.74
2018-09-01T04:55:14.871Z,1011.75
2018-09-01T04:56:14.861Z,1011.75
2018-09-01T04:57:14.838Z,1011.75
2018-09-01T04:58:14.827Z,1011.71
2018-09-01T04:59:14.846Z,1011.74
2018-09-01T05:00:14.794Z,1011.75
2018-09-01T05:01:14.789Z,1011.77
2018-09-01T05:02:14.767Z,1011.79
2018-09-01T05:03:14.745Z,1011.82
2018-09-01T05:04:14.764Z,1011.83
2018-09-01T05:05:14.729Z,1011.82
2018-09-01T05:06:14.715Z,1011.80
2018-09-01T05:07:14.697Z,1011.83
2018-09-01T05:08:14.670Z,1011.85
2018-09-01T05:09:14.700Z,1011.86
2018-09-01T05:10:14.644Z,1011.83
2018-09-01T05:11:14.636Z,1011.84
2018-09-01T05:12:14.631Z,1011.81
2018-09-01T05:13:14.610Z,1011.84
2018-09-01T05:14:14.903Z,1011.86
2018-09-01T05:15:14.578Z,1011.87
2018-09-01T05:16:14.568Z,1011.93
2018-09-01T05:17:14.556Z,1011.97
2018-09-01T05:18:14.534Z,1011.94
2018-09-01T05:19:14.517Z,1011.96
2018-09-01T05:20:14.533Z,1011.97
2018-09-01T05:21:14.499Z,1012.00
2018-09-01T05:22:14.483Z,1012.00
2018-09-01T05:23:14.452Z,1012.01
2018-09-01T05:24:14.477Z,1012.01
2018-09-01T05:25:14.465Z,1012.05
2018-09-01T05:26:14.424Z,1012.08
2018-09-01T05:27:14.410Z,1012.06
2018-09-01T05:28:14.386Z,1012.06
2018-09-01T05:29:14.378Z,1012.08
2018-09-01T05:30:14.397Z,1012.06
2018-09-01T05:31:14.357Z,1012.07
2018-09-01T05:32:14.334Z,1012.06
2018-09-01T05:33:14.321Z,1012.09
2018-09-01T05:34:14.333Z,1012.12
2018-09-01T05:35:14.289Z,1012.12
2018-09-01T05:36:14.269Z,1012.13
2018-09-01T05:37:14.283Z,1012.15
2018-09-01T05:38:14.243Z,1012.19
2018-09-01T05:39:14.226Z,1012.17
2018-09-01T05:40:14.206Z,1012.16
2018-09-01T05:41:14.193Z,1012.15
2018-09-01T05:42:14.213Z,1012.19
2018-09-01T05:43:14.166Z,1012.19
2018-09-01T05:44:14.154Z,1012.22
2018-09-01T05:45:14.132Z,1012.24
2018-09-01T05:46:14.114Z,1012.24
2018-09-01T05:47:14.144Z,1012.28
2018-09-01T05:48:14.099Z,1012.30
2018-09-01T05:49:14.080Z,1012.27
2018-09-01T05:50:14.116Z,1012.32
2018-09-01T05:51:14.046Z,1012.31
2018-09-01T05:52:14.043Z,1012.34
2018-09-01T05:53:14.036Z,1012.36
2018-09-01T05:54:14.013Z,1012.41
2018-09-01T05:55:13.995Z,1012.42
2018-09-01T05:56:13.978Z,1012.43
2018-09-01T05:57:13.958Z,1012.43
2018-09-01T05:58:13.943Z,1012.45
2018-09-01T05:59:13.931Z,1012.51
2018-09-01T06:00:13.925Z,1012.47
2018-09-01T06:01:13.925Z,1012.50
2018-09-01T06:02:13.893Z,1012.52
2018-09-01T06:03:13.871Z,1012.49
2018-09-01T06:04:13.859Z,1012.50
2018-09-01T06:05:13.856Z,1012.49
2018-09-01T06:06:13.997Z,1012.49
2018-09-01T06:07:13.826Z,1012.47
2018-09-01T06:08:13.811Z,1012.44
2018-09-01T06:09:13.873Z,1012.43
2018-09-01T06:10:13.780Z,1012.50
2018-09-01T06:11:13.790Z,1012.49
2018-09-01T06:12:13.747Z,1012.51
2018-09-01T06:13:13.754Z,1012.56
2018-09-01T06:14:13.731Z,1012.55
2018-09-01T06:15:13.712Z,1012.57
2018-09-01T06:16:13.696Z,1012.58
2018-09-01T06:17:13.676Z,1012.57
2018-09-01T06:18:13.678Z,1012.62
2018-09-01T06:19:13.697Z,1012.61
2018-09-01T06:20:13.691Z,1012.63
2018-09-01T06:21:13.629Z,1012.59
2018-09-01T06:22:13.618Z,1012.58
2018-09-01T06:23:13.596Z,1012.60
2018-09-01T06:24:13.591Z,1012.63
2018-09-01T06:25:13.576Z,1012.64
2018-09-01T06:26:13.555Z,1012.68
2018-09-01T06:27:13.546Z,1012.63
2018-09-01T06:28:13.537Z,1012.65
2018-09-01T06:29:13.553Z,1012.65
2018-09-01T06:30:13.557Z,1012.69
2018-09-01T06:31:13.493Z,1012.73
2018-09-01T06:32:13.477Z,1012.73
2018-09-01T06:33:13.468Z,1012.73
2018-09-01T06:34:13.515Z,1012.75
2018-09-01T06:35:13.478Z,1012.76
2018-09-01T06:36:13.428Z,1012.80
2018-09-01T06:37:13.412Z,1012.82
2018-09-01T06:38:13.397Z,1012.84
2018-09-01T06:39:13.429Z,1012.86
2018-09-01T06:40:13.376Z,1012.83
2018-09-01T06:41:13.376Z,1012.82
2018-09-01T06:42:13.351Z,1012.84
2018-09-01T06:43:13.334Z,1012.85
2018-09-01T06:44:13.328Z,1012.85
2018-09-01T06:45:13.369Z,1012.87
2018-09-01T06:46:13.289Z,1012.82
2018-09-01T06:47:13.273Z,1012.82
2018-09-01T06:48:13.269Z,1012.85
2018-09-01T06:49:13.259Z,1012.86
2018-09-01T06:50:13.239Z,1012.86
2018-09-01T06:51:13.290Z,1012.85
2018-09-01T06:52:13.218Z,1012.88
2018-09-01T06:53:13.203Z,1012.87
2018-09-01T06:54:13.192Z,1012.93
2018-09-01T06:55:13.175Z,1012.90
2018-09-01T06:56:13.170Z,1012.93
2018-09-01T06:57:13.191Z,1012.92
2018-09-01T06:58:13.148Z,1012.96
2018-09-01T06:59:13.133Z,1012.95
2018-09-01T07:00:13.119Z,1012.97
2018-09-01T07:01:13.101Z,1012.97
2018-09-01T07:02:13.152Z,1012.98
2018-09-01T07:03:13.082Z,1012.95
2018-09-01T07:04:13.078Z,1012.95
2018-09-01T07:05:13.062Z,1012.91
2018-09-01T07:06:13.047Z,1012.91
2018-09-01T07:07:13.037Z,1012.88
2018-09-01T07:08:13.053Z,1012.90
2018-09-01T07:09:13.004Z,1012.90
2018-09-01T07:10:13.004Z,1012.90
2018-09-01T07:11:12.976Z,1012.97
2018-09-01T07:12:12.976Z,1013.00
2018-09-01T07:13:12.991Z,1013.00
2018-09-01T07:14:12.954Z,1012.99
2018-09-01T07:15:12.938Z,1012.99
2018-09-01T07:16:12.926Z,1012.97
2018-09-01T07:17:12.912Z,1012.96
2018-09-01T07:18:12.946Z,1012.95
2018-09-01T07:19:12.892Z,1012.98
2018-09-01T07:20:12.882Z,1013.04
2018-09-01T07:21:12.854Z,1013.03
2018-09-01T07:22:12.843Z,1013.02
2018-09-01T07:23:12.840Z,1013.03
2018-09-01T07:24:12.860Z,1013.03
2018-09-01T07:25:12.818Z,1013.05
2018-09-01T07:26:12.801Z,1013.04
2018-09-01T07:27:12.800Z,1013.06
2018-09-01T07:28:12.951Z,1013.05
2018-09-01T07:29:12.776Z,1013.11
2018-09-01T07:30:12.790Z,1013.09
2018-09-01T07:31:13.041Z,1013.16
2018-09-01T07:32:12.729Z,1013.13
2018-09-01T07:33:12.719Z,1013.13
2018-09-01T07:34:13.782Z,1013.17
2018-09-01T07:35:12.682Z,1013.13
2018-09-01T07:36:12.679Z,1013.15
2018-09-01T07:37:12.670Z,1013.12
2018-09-01T07:38:12.654Z,1013.16
2018-09-01T07:39:12.643Z,1013.16
2018-09-01T07:40:12.634Z,1013.17
2018-09-01T07:41:12.618Z,1013.16
2018-09-01T07:42:12.637Z,1013.17
2018-09-01T07:43:12.601Z,1013.15
2018-09-01T07:44:12.609Z,1013.21
2018-09-01T07:45:12.568Z,1013.19
2018-09-01T07:46:12.590Z,1013.17
2018-09-01T07:47:12.546Z,1013.16
2018-09-01T07:48:12.897Z,1013.20
2018-09-01T07:49:12.514Z,1013.20
2018-09-01T07:50:12.512Z,1013.25
2018-09-01T07:51:12.488Z,1013.20
2018-09-01T07:52:12.483Z,1013.24
2018-09-01T07:53:12.471Z,1013.23
2018-09-01T07:54:12.515Z,1013.25
2018-09-01T07:55:12.458Z,1013.25
2018-09-01T07:56:12.625Z,1013.25
2018-09-01T07:57:12.421Z,1013.26
2018-09-01T07:58:12.419Z,1013.32
2018-09-01T07:59:12.410Z,1013.28
2018-09-01T08:00:12.415Z,1013.25
2018-09-01T08:01:12.385Z,1013.25
2018-09-01T08:02:12.374Z,1013.27
2018-09-01T08:03:12.356Z,1013.27
2018-09-01T08:04:12.405Z,1013.29
2018-09-01T08:05:12.333Z,1013.29
2018-09-01T08:06:12.314Z,1013.28
2018-09-01T08:07:12.299Z,1013.29
2018-09-01T08:08:12.299Z,1013.35
2018-09-01T08:09:12.283Z,1013.32
2018-09-01T08:10:12.287Z,1013.35
2018-09-01T08:11:12.265Z,1013.38
2018-09-01T08:12:12.257Z,1013.40
2018-09-01T08:13:12.249Z,1013.41
2018-09-01T08:14:12.279Z,1013.42
2018-09-01T08:15:12.207Z,1013.43
2018-09-01T08:16:12.193Z,1013.44
2018-09-01T08:17:12.200Z,1013.44
2018-09-01T08:18:12.174Z,1013.41
2018-09-01T08:19:12.165Z,1013.41
2018-09-01T08:20:12.156Z,1013.44
2018-09-01T08:21:12.148Z,1013.43
2018-09-01T08:22:12.170Z,1013.47
2018-09-01T08:23:12.467Z,1013.41
2018-09-01T08:24:12.105Z,1013.40
2018-09-01T08:25:12.088Z,1013.38
2018-09-01T08:26:12.153Z,1013.38
2018-09-01T08:27:12.078Z,1013.36
2018-09-01T08:28:12.057Z,1013.40
2018-09-01T08:29:12.089Z,1013.39
2018-09-01T08:30:12.071Z,1013.42
2018-09-01T08:31:12.028Z,1013.48
2018-09-01T08:32:12.017Z,1013.47
2018-09-01T08:33:12.004Z,1013.44
2018-09-01T08:34:13.354Z,1013.45
2018-09-01T08:35:11.983Z,1013.46
2018-09-01T08:36:11.974Z,1013.43
2018-09-01T08:37:11.961Z,1013.42
2018-09-01T08:38:11.957Z,1013.47
2018-09-01T08:39:11.963Z,1013.44
2018-09-01T08:40:11.937Z,1013.54
2018-09-01T08:41:11.920Z,1013.50
2018-09-01T08:42:11.908Z,1013.55
2018-09-01T08:43:11.902Z,1013.51
2018-09-01T08:44:11.917Z,1013.46
2018-09-01T08:45:11.922Z,1013.46
2018-09-01T08:46:11.859Z,1013.48
2018-09-01T08:47:11.851Z,1013.46
2018-09-01T08:48:11.851Z,1013.45
2018-09-01T08:49:11.864Z,1013.46
2018-09-01T08:50:11.819Z,1013.42
2018-09-01T08:51:11.813Z,1013.40
2018-09-01T08:52:11.831Z,1013.45
2018-09-01T08:53:11.812Z,1013.51
2018-09-01T08:54:11.800Z,1013.51
2018-09-01T08:55:11.770Z,1013.54
2018-09-01T08:56:11.758Z,1013.54
2018-09-01T08:57:11.778Z,1013.54
2018-09-01T08:58:11.732Z,1013.60
2018-09-01T08:59:11.722Z,1013.62
2018-09-01T09:00:11.769Z,1013.63
2018-09-01T09:01:11.691Z,1013.66
2018-09-01T09:02:11.719Z,1013.64
2018-09-01T09:03:11.679Z,1013.60
2018-09-01T09:04:11.674Z,1013.59
2018-09-01T09:05:11.660Z,1013.62
2018-09-01T09:06:11.654Z,1013.60
2018-09-01T09:07:11.679Z,1013.65
2018-09-01T09:08:11.628Z,1013.63
2018-09-01T09:09:11.611Z,1013.58
2018-09-01T09:10:11.640Z,1013.61
2018-09-01T09:11:11.611Z,1013.59
2018-09-01T09:12:11.584Z,1013.60
2018-09-01T09:13:11.946Z,1013.56
2018-09-01T09:14:11.554Z,1013.54
2018-09-01T09:15:11.564Z,1013.56
2018-09-01T09:16:11.546Z,1013.59
2018-09-01T09:17:11.538Z,1013.60
2018-09-01T09:18:11.529Z,1013.55
2018-09-01T09:19:11.824Z,1013.56
2018-09-01T09:20:11.502Z,1013.53
2018-09-01T09:21:11.497Z,1013.48
2018-09-01T09:22:11.492Z,1013.50
2018-09-01T09:23:11.529Z,1013.50
2018-09-01T09:24:11.457Z,1013.62
2018-09-01T09:25:11.444Z,1013.57
2018-09-01T09:26:11.440Z,1013.59
2018-09-01T09:27:11.433Z,1013.58
2018-09-01T09:28:11.485Z,1013.63
2018-09-01T09:29:11.416Z,1013.56
2018-09-01T09:30:11.418Z,1013.59
2018-09-01T09:31:11.397Z,1013.53
2018-09-01T09:32:11.438Z,1013.58
2018-09-01T09:33:11.374Z,1013.61
2018-09-01T09:34:11.371Z,1013.57
2018-09-01T09:35:11.359Z,1013.63
2018-09-01T09:36:11.344Z,1013.62
2018-09-01T09:37:11.333Z,1013.65
2018-09-01T09:38:11.354Z,1013.64
2018-09-01T09:39:11.338Z,1013.70
2018-09-01T09:40:11.308Z,1013.71
2018-09-01T09:41:11.297Z,1013.66
2018-09-01T09:42:11.286Z,1013.67
2018-09-01T09:43:11.282Z,1013.63
2018-09-01T09:44:11.529Z,1013.61
2018-09-01T09:45:11.249Z,1013.64
2018-09-01T09:46:11.252Z,1013.65
2018-09-01T09:47:11.248Z,1013.63
2018-09-01T09:48:11.231Z,1013.63
2018-09-01T09:49:11.382Z,1013.63
2018-09-01T09:50:11.510Z,1013.65
2018-09-01T09:51:11.205Z,1013.70
2018-09-01T09:52:11.197Z,1013.75
2018-09-01T09:53:11.190Z,1013.73
2018-09-01T09:54:11.174Z,1013.78
2018-09-01T09:55:11.197Z,1013.75
2018-09-01T09:56:11.149Z,1013.78
2018-09-01T09:57:11.145Z,1013.77
2018-09-01T09:58:11.201Z,1013.75
2018-09-01T09:59:11.119Z,1013.72
2018-09-01T10:00:11.145Z,1013.77
2018-09-01T10:01:11.113Z,1013.74
2018-09-01T10:02:11.097Z,1013.78
2018-09-01T10:03:11.090Z,1013.78
2018-09-01T10:04:11.072Z,1013.82
2018-09-01T10:05:11.150Z,1013.77
2018-09-01T10:06:11.064Z,1013.78
2018-09-01T10:07:11.048Z,1013.75
2018-09-01T10:08:11.053Z,1013.74
2018-09-01T10:09:11.584Z,1013.70
2018-09-01T10:10:11.048Z,1013.70
2018-09-01T10:11:11.267Z,1013.74
2018-09-01T10:12:11.339Z,1013.80
2018-09-01T10:13:11.049Z,1013.81
2018-09-01T10:14:10.980Z,1013.79
2018-09-01T10:15:11.009Z,1013.76
2018-09-01T10:16:10.966Z,1013.81
2018-09-01T10:17:10.954Z,1013.84
2018-09-01T10:18:10.942Z,1013.84
2018-09-01T10:19:11.133Z,1013.72
2018-09-01T10:20:10.977Z,1013.72
2018-09-01T10:21:11.027Z,1013.65
2018-09-01T10:22:10.940Z,1013.70
2018-09-01T10:23:10.901Z,1013.74
2018-09-01T10:24:11.529Z,1013.72
2018-09-01T10:25:10.903Z,1013.76
2018-09-01T10:26:11.671Z,1013.79
2018-09-01T10:27:10.945Z,1013.76
2018-09-01T10:28:10.859Z,1013.68
2018-09-01T10:29:10.864Z,1013.65
2018-09-01T10:30:10.882Z,1013.64
2018-09-01T10:31:10.841Z,1013.68
2018-09-01T10:32:10.829Z,1013.68
2018-09-01T10:33:10.847Z,1013.66
2018-09-01T10:34:10.803Z,1013.72
2018-09-01T10:35:10.793Z,1013.72
2018-09-01T10:36:10.789Z,1013.75
2018-09-01T10:37:10.779Z,1013.74
2018-09-01T10:38:10.773Z,1013.74
2018-09-01T10:39:10.761Z,1013.72
2018-09-01T10:40:10.755Z,1013.72
2018-09-01T10:41:10.755Z,1013.74
2018-09-01T10:42:10.744Z,1013.69
2018-09-01T10:43:10.734Z,1013.76
2018-09-01T10:44:10.727Z,1013.73
2018-09-01T10:45:10.796Z,1013.68
2018-09-01T10:46:10.708Z,1013.70
2018-09-01T10:47:10.699Z,1013.71
2018-09-01T10:48:10.692Z,1013.69
2018-09-01T10:49:10.686Z,1013.62
2018-09-01T10:50:10.675Z,1013.60
2018-09-01T10:51:10.663Z,1013.61
2018-09-01T10:52:10.663Z,1013.56
2018-09-01T10:53:10.647Z,1013.57
2018-09-01T10:54:11.007Z,1013.54
2018-09-01T10:55:10.630Z,1013.53
2018-09-01T10:56:10.618Z,1013.43
2018-09-01T10:57:10.611Z,1013.37
2018-09-01T10:58:10.601Z,1013.34
2018-09-01T10:59:10.784Z,1013.38
2018-09-01T11:00:10.596Z,1013.37
2018-09-01T11:01:10.584Z,1013.37
2018-09-01T11:02:10.577Z,1013.34
2018-09-01T11:03:10.563Z,1013.38
2018-09-01T11:04:10.579Z,1013.41
2018-09-01T11:05:10.639Z,1013.37
2018-09-01T11:06:10.568Z,1013.32
2018-09-01T11:07:10.532Z,1013.36
2018-09-01T11:08:10.513Z,1013.31
2018-09-01T11:09:10.510Z,1013.34
2018-09-01T11:10:10.546Z,1013.33
2018-09-01T11:11:10.536Z,1013.33
2018-09-01T11:12:10.479Z,1013.33
2018-09-01T11:13:10.481Z,1013.31
2018-09-01T11:14:10.471Z,1013.33
2018-09-01T11:15:10.468Z,1013.33
2018-09-01T11:16:10.458Z,1013.29
2018-09-01T11:17:10.441Z,1013.32
2018-09-01T11:18:10.430Z,1013.29
2018-09-01T11:19:10.435Z,1013.30
2018-09-01T11:20:10.579Z,1013.29
2018-09-01T11:21:10.419Z,1013.30
2018-09-01T11:22:10.403Z,1013.29
2018-09-01T11:23:10.395Z,1013.28
2018-09-01T11:24:10.389Z,1013.30
2018-09-01T11:25:10.387Z,1013.27
2018-09-01T11:26:10.371Z,1013.24
2018-09-01T11:27:10.372Z,1013.26
2018-09-01T11:28:10.461Z,1013.28
2018-09-01T11:29:10.338Z,1013.32
2018-09-01T11:30:10.400Z,1013.30
2018-09-01T11:31:10.328Z,1013.26
2018-09-01T11:32:10.317Z,1013.22
2018-09-01T11:33:10.308Z,1013.22
2018-09-01T11:34:10.312Z,1013.21
2018-09-01T11:35:10.298Z,1013.22
2018-09-01T11:36:10.315Z,1013.25
2018-09-01T11:37:10.285Z,1013.24
2018-09-01T11:38:10.276Z,1013.27
2018-09-01T11:39:10.255Z,1013.22
2018-09-01T11:40:10.255Z,1013.23
2018-09-01T11:41:10.278Z,1013.22
2018-09-01T11:42:10.238Z,1013.23
2018-09-01T11:43:10.382Z,1013.24
2018-09-01T11:44:10.219Z,1013.28
2018-09-01T11:45:10.214Z,1013.32
2018-09-01T11:46:10.225Z,1013.36
2018-09-01T11:47:10.271Z,1013.28
2018-09-01T11:48:10.188Z,1013.26
2018-09-01T11:49:10.180Z,1013.27
2018-09-01T11:50:10.216Z,1013.29
2018-09-01T11:51:10.151Z,1013.25
2018-09-01T11:52:10.181Z,1013.25
2018-09-01T11:53:10.190Z,1013.23
2018-09-01T11:54:10.141Z,1013.22
2018-09-01T11:55:10.122Z,1013.26
2018-09-01T11:56:10.122Z,1013.20
2018-09-01T11:57:10.107Z,1013.16
2018-09-01T11:58:10.478Z,1013.18
2018-09-01T11:59:10.093Z,1013.16
2018-09-01T12:00:10.083Z,1013.19
2018-09-01T12:01:10.078Z,1013.22
2018-09-01T12:02:10.093Z,1013.17
2018-09-01T12:03:10.069Z,1013.22
2018-09-01T12:04:10.086Z,1013.21
2018-09-01T12:05:10.052Z,1013.23